sensor_id;sensor_type;location;lat;lon;timestamp;pressure;altitude;pressure_sealevel;temperature;humidity
25610;BME280;13479;49.044;8.716;2023-04-25T04:02:25;98395.03;;;7.91;79.98
25610;BME280;13479;49.044;8.716;2023-04-25T04:04:51;98406.56;;;7.90;80.38
25610;BME280;13479;49.044;8.716;2023-04-25T04:07:16;98410.03;;;7.91;80.93
25610;BME280;13479;49.044;8.716;2023-04-25T04:09:41;98418.69;;;7.93;80.84
25610;BME280;13479;49.044;8.716;2023-04-25T04:12:07;98426.03;;;7.89;81.23
25610;BME280;13479;49.044;8.716;2023-04-25T04:14:32;98437.34;;;7.91;81.37
25610;BME280;13479;49.044;8.716;2023-04-25T04:16:57;98432.28;;;7.88;81.48
25610;BME280;13479;49.044;8.716;2023-04-25T04:19:22;98440.94;;;7.90;81.46
25610;BME280;13479;49.044;8.716;2023-04-25T04:21:47;98446.22;;;7.90;81.40
25610;BME280;13479;49.044;8.716;2023-04-25T04:24:13;98451.50;;;7.90;81.65
25610;BME280;13479;49.044;8.716;2023-04-25T04:26:38;98451.69;;;7.98;81.41
25610;BME280;13479;49.044;8.716;2023-04-25T04:29:04;98452.84;;;8.06;81.52
25610;BME280;13479;49.044;8.716;2023-04-25T04:31:29;98464.69;;;8.11;81.15
25610;BME280;13479;49.044;8.716;2023-04-25T04:33:55;98458.91;;;8.17;81.45
25610;BME280;13479;49.044;8.716;2023-04-25T04:36:20;98456.56;;;8.24;81.55
25610;BME280;13479;49.044;8.716;2023-04-25T04:38:47;98457.00;;;8.29;81.70
25610;BME280;13479;49.044;8.716;2023-04-25T04:41:12;98452.59;;;8.40;81.65
25610;BME280;13479;49.044;8.716;2023-04-25T04:43:37;98457.00;;;8.50;81.59
25610;BME280;13479;49.044;8.716;2023-04-25T04:46:04;98456.44;;;8.57;81.64
25610;BME280;13479;49.044;8.716;2023-04-25T04:48:31;98463.72;;;8.64;81.56
25610;BME280;13479;49.044;8.716;2023-04-25T04:50:59;98458.59;;;8.73;81.80
25610;BME280;13479;49.044;8.716;2023-04-25T04:53:24;98471.16;;;8.80;81.56
25610;BME280;13479;49.044;8.716;2023-04-25T04:55:49;98480.06;;;8.79;81.04
25610;BME280;13479;49.044;8.716;2023-04-25T04:58:14;98478.69;;;8.85;81.02
25610;BME280;13479;49.044;8.716;2023-04-25T05:00:40;98489.59;;;8.92;80.90
25610;BME280;13479;49.044;8.716;2023-04-25T05:03:05;98490.16;;;8.95;80.69
25610;BME280;13479;49.044;8.716;2023-04-25T05:05:30;98493.25;;;9.01;80.27
25610;BME280;13479;49.044;8.716;2023-04-25T05:07:55;98500.50;;;9.08;80.03
25610;BME280;13479;49.044;8.716;2023-04-25T05:10:21;98512.25;;;9.25;79.46
25610;BME280;13479;49.044;8.716;2023-04-25T05:12:46;98503.59;;;9.23;79.02
25610;BME280;13479;49.044;8.716;2023-04-25T05:15:11;98490.50;;;9.32;79.18
25610;BME280;13479;49.044;8.716;2023-04-25T05:17:37;98489.13;;;9.37;78.92
25610;BME280;13479;49.044;8.716;2023-04-25T05:20:03;98488.56;;;9.53;78.61
25610;BME280;13479;49.044;8.716;2023-04-25T05:22:30;98490.53;;;9.71;78.27
25610;BME280;13479;49.044;8.716;2023-04-25T05:24:56;98487.44;;;9.85;77.62
25610;BME280;13479;49.044;8.716;2023-04-25T05:27:21;98494.44;;;10.06;77.12
25610;BME280;13479;49.044;8.716;2023-04-25T05:29:46;98486.84;;;10.21;76.40
25610;BME280;13479;49.044;8.716;2023-04-25T05:32:11;98496.31;;;10.43;74.99
25610;BME280;13479;49.044;8.716;2023-04-25T05:34:37;98470.56;;;10.54;74.66
25610;BME280;13479;49.044;8.716;2023-04-25T05:37:02;98450.97;;;10.64;74.26
25610;BME280;13479;49.044;8.716;2023-04-25T05:39:27;98442.53;;;10.79;73.88
25610;BME280;13479;49.044;8.716;2023-04-25T05:41:53;98456.16;;;10.94;73.29
25610;BME280;13479;49.044;8.716;2023-04-25T05:44:18;98453.75;;;11.19;72.82
25610;BME280;13479;49.044;8.716;2023-04-25T05:46:43;98475.00;;;11.55;71.53
25610;BME280;13479;49.044;8.716;2023-04-25T05:49:09;98467.13;;;12.52;69.63
25610;BME280;13479;49.044;8.716;2023-04-25T05:51:34;98497.97;;;13.98;65.71
25610;BME280;13479;49.044;8.716;2023-04-25T05:53:59;98447.47;;;15.79;59.06
25610;BME280;13479;49.044;8.716;2023-04-25T05:56:25;98394.81;;;17.65;54.86
25610;BME280;13479;49.044;8.716;2023-04-25T05:58:50;98382.00;;;18.94;49.63
25610;BME280;13479;49.044;8.716;2023-04-25T06:01:16;98365.53;;;19.98;45.54
25610;BME280;13479;49.044;8.716;2023-04-25T06:03:41;98374.53;;;20.44;43.41
25610;BME280;13479;49.044;8.716;2023-04-25T06:06:08;98382.56;;;20.64;42.20
25610;BME280;13479;49.044;8.716;2023-04-25T06:08:34;98390.16;;;21.65;40.48
25610;BME280;13479;49.044;8.716;2023-04-25T06:10:59;98386.25;;;22.48;38.15
25610;BME280;13479;49.044;8.716;2023-04-25T06:13:25;98402.75;;;22.40;37.32
25610;BME280;13479;49.044;8.716;2023-04-25T06:15:50;98410.03;;;21.96;37.20
25610;BME280;13479;49.044;8.716;2023-04-25T06:18:15;98407.81;;;20.90;39.42
25610;BME280;13479;49.044;8.716;2023-04-25T06:20:40;98427.34;;;20.85;38.86
25610;BME280;13479;49.044;8.716;2023-04-25T06:23:06;98435.56;;;20.25;39.56
25610;BME280;13479;49.044;8.716;2023-04-25T06:25:31;98428.91;;;19.73;40.14
25610;BME280;13479;49.044;8.716;2023-04-25T06:27:56;98391.56;;;19.10;41.58
25610;BME280;13479;49.044;8.716;2023-04-25T06:30:21;98358.03;;;18.15;42.98
25610;BME280;13479;49.044;8.716;2023-04-25T06:32:50;98345.25;;;17.60;43.76
25610;BME280;13479;49.044;8.716;2023-04-25T06:35:15;98327.22;;;16.89;46.08
25610;BME280;13479;49.044;8.716;2023-04-25T06:37:41;98336.03;;;16.31;47.68
25610;BME280;13479;49.044;8.716;2023-04-25T06:40:06;98327.50;;;15.83;48.11
25610;BME280;13479;49.044;8.716;2023-04-25T06:42:32;98317.53;;;15.23;49.76
25610;BME280;13479;49.044;8.716;2023-04-25T06:44:57;98315.28;;;14.89;50.54
25610;BME280;13479;49.044;8.716;2023-04-25T06:47:22;98305.56;;;14.33;52.25
25610;BME280;13479;49.044;8.716;2023-04-25T06:49:48;98303.53;;;13.95;53.28
25610;BME280;13479;49.044;8.716;2023-04-25T06:52:13;98301.97;;;13.61;54.77
25610;BME280;13479;49.044;8.716;2023-04-25T06:54:38;98308.94;;;13.29;55.65
25610;BME280;13479;49.044;8.716;2023-04-25T06:57:03;98296.63;;;13.03;57.03
25610;BME280;13479;49.044;8.716;2023-04-25T06:59:29;98286.13;;;12.77;57.95
25610;BME280;13479;49.044;8.716;2023-04-25T07:01:54;98285.41;;;12.58;58.46
25610;BME280;13479;49.044;8.716;2023-04-25T07:04:19;98273.06;;;12.41;59.22
25610;BME280;13479;49.044;8.716;2023-04-25T07:06:45;98279.31;;;12.15;60.76
25610;BME280;13479;49.044;8.716;2023-04-25T07:09:12;98276.81;;;12.13;60.77
25610;BME280;13479;49.044;8.716;2023-04-25T07:11:37;98270.31;;;12.08;61.37
25610;BME280;13479;49.044;8.716;2023-04-25T07:14:03;98266.28;;;12.03;61.25
25610;BME280;13479;49.044;8.716;2023-04-25T07:16:28;98251.63;;;11.99;61.97
25610;BME280;13479;49.044;8.716;2023-04-25T07:18:54;98249.34;;;12.13;61.52
25610;BME280;13479;49.044;8.716;2023-04-25T07:21:19;98245.78;;;12.30;61.19
25610;BME280;13479;49.044;8.716;2023-04-25T07:23:44;98281.72;;;12.43;59.63
25610;BME280;13479;49.044;8.716;2023-04-25T07:26:10;98286.88;;;12.36;60.37
25610;BME280;13479;49.044;8.716;2023-04-25T07:28:35;98264.41;;;12.39;60.69
25610;BME280;13479;49.044;8.716;2023-04-25T07:31:00;98244.91;;;12.22;61.38
25610;BME280;13479;49.044;8.716;2023-04-25T07:33:26;98249.44;;;12.38;61.35
25610;BME280;13479;49.044;8.716;2023-04-25T07:35:52;98261.94;;;12.37;61.09
25610;BME280;13479;49.044;8.716;2023-04-25T07:38:17;98263.22;;;12.25;61.19
25610;BME280;13479;49.044;8.716;2023-04-25T07:40:43;98260.00;;;12.13;61.41
25610;BME280;13479;49.044;8.716;2023-04-25T07:43:08;98244.69;;;12.07;62.79
25610;BME280;13479;49.044;8.716;2023-04-25T07:45:33;98253.47;;;11.99;62.63
25610;BME280;13479;49.044;8.716;2023-04-25T07:47:59;98256.28;;;11.97;62.59
25610;BME280;13479;49.044;8.716;2023-04-25T07:50:24;98264.84;;;11.83;62.97
25610;BME280;13479;49.044;8.716;2023-04-25T07:52:49;98258.16;;;11.79;63.07
25610;BME280;13479;49.044;8.716;2023-04-25T07:55:15;98262.88;;;11.85;63.33
25610;BME280;13479;49.044;8.716;2023-04-25T07:57:40;98287.50;;;11.95;62.72
25610;BME280;13479;49.044;8.716;2023-04-25T08:00:06;98297.53;;;12.01;62.23
25610;BME280;13479;49.044;8.716;2023-04-25T08:02:34;98316.16;;;12.01;62.68
25610;BME280;13479;49.044;8.716;2023-04-25T08:04:59;98294.38;;;11.98;63.25
25610;BME280;13479;49.044;8.716;2023-04-25T08:07:24;98277.25;;;12.00;64.03
25610;BME280;13479;49.044;8.716;2023-04-25T08:09:50;98291.53;;;11.99;64.34
25610;BME280;13479;49.044;8.716;2023-04-25T08:12:15;98295.38;;;12.05;64.30
25610;BME280;13479;49.044;8.716;2023-04-25T08:14:40;98308.56;;;12.15;64.01
25610;BME280;13479;49.044;8.716;2023-04-25T08:17:06;98344.19;;;12.22;63.17
25610;BME280;13479;49.044;8.716;2023-04-25T08:19:31;98399.13;;;12.31;62.31
25610;BME280;13479;49.044;8.716;2023-04-25T08:21:56;98424.75;;;12.32;62.19
25610;BME280;13479;49.044;8.716;2023-04-25T08:24:22;98449.06;;;12.38;62.42
25610;BME280;13479;49.044;8.716;2023-04-25T08:26:48;98433.94;;;12.38;62.02
25610;BME280;13479;49.044;8.716;2023-04-25T08:29:13;98428.81;;;12.18;62.61
25610;BME280;13479;49.044;8.716;2023-04-25T08:31:38;98434.66;;;12.22;62.45
25610;BME280;13479;49.044;8.716;2023-04-25T08:34:04;98423.50;;;12.18;62.98
25610;BME280;13479;49.044;8.716;2023-04-25T08:36:29;98390.50;;;12.03;63.63
25610;BME280;13479;49.044;8.716;2023-04-25T08:38:55;98354.94;;;12.04;63.95
25610;BME280;13479;49.044;8.716;2023-04-25T08:41:20;98343.00;;;11.90;64.49
25610;BME280;13479;49.044;8.716;2023-04-25T08:43:48;98327.50;;;11.85;65.20
25610;BME280;13479;49.044;8.716;2023-04-25T08:46:17;98328.97;;;11.80;66.03
25610;BME280;13479;49.044;8.716;2023-04-25T08:48:44;98351.66;;;11.92;66.78
25610;BME280;13479;49.044;8.716;2023-04-25T08:51:16;98361.56;;;11.82;67.84
25610;BME280;13479;49.044;8.716;2023-04-25T08:53:49;98375.91;;;11.89;68.37
25610;BME280;13479;49.044;8.716;2023-04-25T08:56:16;98399.69;;;11.90;68.39
25610;BME280;13479;49.044;8.716;2023-04-25T08:58:43;98411.56;;;11.78;68.61
25610;BME280;13479;49.044;8.716;2023-04-25T09:01:11;98447.13;;;11.77;66.91
25610;BME280;13479;49.044;8.716;2023-04-25T09:03:36;98617.66;;;11.46;63.00
25610;BME280;13479;49.044;8.716;2023-04-25T09:06:02;98614.91;;;11.00;62.96
25610;BME280;13479;49.044;8.716;2023-04-25T09:08:27;98565.03;;;10.46;65.02
25610;BME280;13479;49.044;8.716;2023-04-25T09:10:52;98467.75;;;9.98;66.83
25610;BME280;13479;49.044;8.716;2023-04-25T09:13:25;98413.81;;;9.69;68.08
25610;BME280;13479;49.044;8.716;2023-04-25T09:15:53;98405.19;;;9.38;70.18
25610;BME280;13479;49.044;8.716;2023-04-25T09:18:29;98431.25;;;9.13;71.70
25610;BME280;13479;49.044;8.716;2023-04-25T09:20:56;98455.34;;;9.00;72.72
25610;BME280;13479;49.044;8.716;2023-04-25T09:23:23;98484.44;;;8.90;73.57
25610;BME280;13479;49.044;8.716;2023-04-25T09:25:50;98502.41;;;8.96;74.22
25610;BME280;13479;49.044;8.716;2023-04-25T09:28:25;98526.94;;;8.89;75.28
25610;BME280;13479;49.044;8.716;2023-04-25T09:30:56;98561.34;;;8.89;76.19
25610;BME280;13479;49.044;8.716;2023-04-25T09:33:29;98577.91;;;8.91;77.05
25610;BME280;13479;49.044;8.716;2023-04-25T09:36:07;98604.38;;;8.91;77.82
25610;BME280;13479;49.044;8.716;2023-04-25T09:38:40;98633.56;;;9.01;78.17
25610;BME280;13479;49.044;8.716;2023-04-25T09:41:07;98643.44;;;8.99;78.38
25610;BME280;13479;49.044;8.716;2023-04-25T09:43:32;98655.31;;;9.04;78.95
25610;BME280;13479;49.044;8.716;2023-04-25T09:45:58;98659.72;;;9.15;79.26
25610;BME280;13479;49.044;8.716;2023-04-25T09:48:26;98676.50;;;9.35;79.47
25610;BME280;13479;49.044;8.716;2023-04-25T09:51:13;98683.78;;;9.33;79.33
25610;BME280;13479;49.044;8.716;2023-04-25T09:53:40;98681.69;;;9.37;79.50
25610;BME280;13479;49.044;8.716;2023-04-25T09:56:08;98682.41;;;9.49;79.66
25610;BME280;13479;49.044;8.716;2023-04-25T09:58:35;98690.28;;;9.60;79.64
25610;BME280;13479;49.044;8.716;2023-04-25T10:01:03;98702.78;;;9.89;79.37
25610;BME280;13479;49.044;8.716;2023-04-25T10:03:33;98724.19;;;10.07;79.03
25610;BME280;13479;49.044;8.716;2023-04-25T10:06:00;98726.44;;;10.31;78.69
25610;BME280;13479;49.044;8.716;2023-04-25T10:08:30;98744.50;;;10.47;78.18
25610;BME280;13479;49.044;8.716;2023-04-25T10:11:01;98752.22;;;10.80;77.79
25610;BME280;13479;49.044;8.716;2023-04-25T10:13:29;98766.72;;;11.05;75.93
25610;BME280;13479;49.044;8.716;2023-04-25T10:15:57;98760.94;;;11.30;74.61
25610;BME280;13479;49.044;8.716;2023-04-25T10:18:24;98737.53;;;11.53;74.22
25610;BME280;13479;49.044;8.716;2023-04-25T10:20:49;98765.72;;;11.73;71.64
25610;BME280;13479;49.044;8.716;2023-04-25T10:23:15;98720.06;;;11.78;72.04
25610;BME280;13479;49.044;8.716;2023-04-25T10:25:42;98729.97;;;11.86;70.78
25610;BME280;13479;49.044;8.716;2023-04-25T10:28:07;98714.66;;;11.98;69.91
25610;BME280;13479;49.044;8.716;2023-04-25T10:30:33;98714.22;;;12.02;69.57
25610;BME280;13479;49.044;8.716;2023-04-25T10:32:59;98682.97;;;12.04;70.27
25610;BME280;13479;49.044;8.716;2023-04-25T10:35:26;98683.69;;;12.07;70.01
25610;BME280;13479;49.044;8.716;2023-04-25T10:40:23;98705.25;;;12.03;68.43
25610;BME280;13479;49.044;8.716;2023-04-25T10:42:49;98691.84;;;11.95;68.73
25610;BME280;13479;49.044;8.716;2023-04-25T10:45:16;98667.91;;;11.95;68.96
25610;BME280;13479;49.044;8.716;2023-04-25T10:47:45;98683.63;;;11.88;68.56
25610;BME280;13479;49.044;8.716;2023-04-25T10:50:11;98655.94;;;11.81;69.02
25610;BME280;13479;49.044;8.716;2023-04-25T10:52:38;98642.53;;;11.73;69.29
25610;BME280;13479;49.044;8.716;2023-04-25T10:55:04;98624.97;;;11.62;69.87
25610;BME280;13479;49.044;8.716;2023-04-25T11:02:37;98561.78;;;11.74;71.13
25610;BME280;13479;49.044;8.716;2023-04-25T11:05:03;98546.91;;;11.81;71.44
25610;BME280;13479;49.044;8.716;2023-04-25T11:07:34;98610.81;;;11.89;70.21
25610;BME280;13479;49.044;8.716;2023-04-25T11:10:03;98660.66;;;12.15;69.56
25610;BME280;13479;49.044;8.716;2023-04-25T11:12:30;98702.91;;;12.36;69.15
25610;BME280;13479;49.044;8.716;2023-04-25T11:15:04;98718.44;;;12.59;68.79
25610;BME280;13479;49.044;8.716;2023-04-25T11:17:30;98715.56;;;12.97;68.42
25610;BME280;13479;49.044;8.716;2023-04-25T11:19:55;98745.97;;;12.86;67.25
25610;BME280;13479;49.044;8.716;2023-04-25T11:22:21;98758.78;;;12.82;66.18
25610;BME280;13479;49.044;8.716;2023-04-25T11:24:46;98737.00;;;12.87;65.94
25610;BME280;13479;49.044;8.716;2023-04-25T11:27:12;98727.00;;;12.89;65.60
25610;BME280;13479;49.044;8.716;2023-04-25T11:29:37;98696.31;;;12.77;66.59
25610;BME280;13479;49.044;8.716;2023-04-25T11:32:03;98688.41;;;12.93;65.80
25610;BME280;13479;49.044;8.716;2023-04-25T11:34:30;98708.28;;;12.99;65.57
25610;BME280;13479;49.044;8.716;2023-04-25T11:36:56;98716.47;;;13.06;64.73
25610;BME280;13479;49.044;8.716;2023-04-25T11:39:21;98708.47;;;13.06;64.97
25610;BME280;13479;49.044;8.716;2023-04-25T11:41:48;98706.06;;;13.21;64.38
25610;BME280;13479;49.044;8.716;2023-04-25T11:44:17;98700.19;;;13.35;63.97
25610;BME280;13479;49.044;8.716;2023-04-25T11:46:43;98714.53;;;13.69;63.81
25610;BME280;13479;49.044;8.716;2023-04-25T11:49:09;98748.97;;;13.88;62.04
25610;BME280;13479;49.044;8.716;2023-04-25T11:51:39;98720.41;;;14.32;61.58
25610;BME280;13479;49.044;8.716;2023-04-25T11:54:04;98719.16;;;14.77;60.71
25610;BME280;13479;49.044;8.716;2023-04-25T11:56:30;98715.78;;;15.08;60.39
25610;BME280;13479;49.044;8.716;2023-04-25T11:58:57;98711.34;;;15.49;58.73
25610;BME280;13479;49.044;8.716;2023-04-25T12:01:33;98710.88;;;16.01;58.00
25610;BME280;13479;49.044;8.716;2023-04-25T12:04:09;98703.72;;;16.25;57.49
25610;BME280;13479;49.044;8.716;2023-04-25T12:06:37;98703.19;;;16.30;56.85
25610;BME280;13479;49.044;8.716;2023-04-25T12:09:08;98708.81;;;16.12;55.74
25610;BME280;13479;49.044;8.716;2023-04-25T12:11:54;98709.84;;;16.02;55.60
25610;BME280;13479;49.044;8.716;2023-04-25T12:14:27;98692.53;;;15.82;56.07
25610;BME280;13479;49.044;8.716;2023-04-25T12:16:55;98680.03;;;15.66;56.35
25610;BME280;13479;49.044;8.716;2023-04-25T12:19:21;98680.13;;;15.33;56.67
25610;BME280;13479;49.044;8.716;2023-04-25T12:21:47;98660.28;;;15.19;56.93
25610;BME280;13479;49.044;8.716;2023-04-25T12:26:59;98553.09;;;14.97;58.32
25610;BME280;13479;49.044;8.716;2023-04-25T12:29:26;98531.47;;;15.15;58.75
25610;BME280;13479;49.044;8.716;2023-04-25T12:31:53;98532.19;;;15.01;58.21
25610;BME280;13479;49.044;8.716;2023-04-25T12:34:19;98565.75;;;15.11;57.75
25610;BME280;13479;49.044;8.716;2023-04-25T12:36:45;98669.44;;;15.41;56.21
25610;BME280;13479;49.044;8.716;2023-04-25T12:39:24;98699.94;;;15.63;55.92
25610;BME280;13479;49.044;8.716;2023-04-25T12:41:52;98717.25;;;15.84;55.69
25610;BME280;13479;49.044;8.716;2023-04-25T12:44:19;98731.28;;;16.02;54.30
25610;BME280;13479;49.044;8.716;2023-04-25T12:46:44;98711.41;;;15.88;54.79
25610;BME280;13479;49.044;8.716;2023-04-25T12:49:10;98637.97;;;15.83;56.75
25610;BME280;13479;49.044;8.716;2023-04-25T12:51:36;98708.84;;;16.03;54.05
25610;BME280;13479;49.044;8.716;2023-04-25T12:54:02;98720.19;;;16.14;53.66
25610;BME280;13479;49.044;8.716;2023-04-25T12:56:28;98723.41;;;16.32;53.69
25610;BME280;13479;49.044;8.716;2023-04-25T12:58:53;98687.41;;;16.58;54.34
25610;BME280;13479;49.044;8.716;2023-04-25T13:01:20;98739.34;;;16.57;52.16
25610;BME280;13479;49.044;8.716;2023-04-25T13:03:45;98737.72;;;16.48;51.98
25610;BME280;13479;49.044;8.716;2023-04-25T13:06:11;98724.06;;;16.34;52.51
25610;BME280;13479;49.044;8.716;2023-04-25T13:08:38;98698.03;;;16.20;53.23
25610;BME280;13479;49.044;8.716;2023-04-25T13:11:03;98702.16;;;15.99;52.90
25610;BME280;13479;49.044;8.716;2023-04-25T13:13:29;98696.75;;;16.08;53.25
25610;BME280;13479;49.044;8.716;2023-04-25T13:15:54;98740.94;;;16.12;51.54
25610;BME280;13479;49.044;8.716;2023-04-25T13:18:20;98706.31;;;15.62;52.99
25610;BME280;13479;49.044;8.716;2023-04-25T13:20:45;98658.00;;;15.55;53.57
25610;BME280;13479;49.044;8.716;2023-04-25T13:23:11;98661.72;;;15.46;53.33
25610;BME280;13479;49.044;8.716;2023-04-25T13:25:36;98653.53;;;15.39;53.44
25610;BME280;13479;49.044;8.716;2023-04-25T13:28:02;98635.69;;;15.32;53.80
25610;BME280;13479;49.044;8.716;2023-04-25T13:30:28;98586.41;;;15.26;54.56
25610;BME280;13479;49.044;8.716;2023-04-25T13:32:53;98579.34;;;14.93;54.77
25610;BME280;13479;49.044;8.716;2023-04-25T13:35:21;98568.19;;;14.73;55.03
25610;BME280;13479;49.044;8.716;2023-04-25T13:37:46;98551.50;;;14.55;55.11
25610;BME280;13479;49.044;8.716;2023-04-25T13:40:11;98556.84;;;14.79;55.33
25610;BME280;13479;49.044;8.716;2023-04-25T13:42:38;98545.78;;;14.82;55.41
25610;BME280;13479;49.044;8.716;2023-04-25T13:45:03;98581.00;;;14.94;54.73
25610;BME280;13479;49.044;8.716;2023-04-25T13:47:29;98575.59;;;15.11;54.70
25610;BME280;13479;49.044;8.716;2023-04-25T13:49:55;98654.97;;;15.10;53.42
25610;BME280;13479;49.044;8.716;2023-04-25T13:52:20;98674.31;;;15.29;54.01
25610;BME280;13479;49.044;8.716;2023-04-25T13:54:46;98672.88;;;15.58;54.07
25610;BME280;13479;49.044;8.716;2023-04-25T13:57:11;98729.38;;;15.63;52.55
25610;BME280;13479;49.044;8.716;2023-04-25T13:59:37;98771.34;;;15.71;50.99
25610;BME280;13479;49.044;8.716;2023-04-25T14:02:02;98777.03;;;15.84;50.81
25610;BME280;13479;49.044;8.716;2023-04-25T14:04:28;98773.69;;;15.66;50.53
25610;BME280;13479;49.044;8.716;2023-04-25T14:06:53;98742.72;;;15.71;50.66
25610;BME280;13479;49.044;8.716;2023-04-25T14:09:19;98736.69;;;15.78;51.35
25610;BME280;13479;49.044;8.716;2023-04-25T14:11:45;98730.69;;;15.75;51.50
25610;BME280;13479;49.044;8.716;2023-04-25T14:14:11;98710.72;;;15.95;51.78
25610;BME280;13479;49.044;8.716;2023-04-25T14:16:37;98769.69;;;16.18;49.26
25610;BME280;13479;49.044;8.716;2023-04-25T14:19:03;98765.84;;;16.12;48.93
25610;BME280;13479;49.044;8.716;2023-04-25T14:21:28;98731.91;;;16.04;50.13
25610;BME280;13479;49.044;8.716;2023-04-25T14:23:54;98740.22;;;15.86;49.81
25610;BME280;13479;49.044;8.716;2023-04-25T14:26:19;98729.72;;;15.68;50.48
25610;BME280;13479;49.044;8.716;2023-04-25T14:28:45;98714.41;;;15.29;50.74
25610;BME280;13479;49.044;8.716;2023-04-25T14:31:10;98697.44;;;14.97;51.13
25610;BME280;13479;49.044;8.716;2023-04-25T14:33:35;98669.03;;;14.96;51.24
25610;BME280;13479;49.044;8.716;2023-04-25T14:36:02;98675.72;;;15.00;51.08
25610;BME280;13479;49.044;8.716;2023-04-25T14:38:27;98638.59;;;15.13;51.60
25610;BME280;13479;49.044;8.716;2023-04-25T14:40:52;98654.88;;;15.43;51.15
25610;BME280;13479;49.044;8.716;2023-04-25T14:43:19;98671.69;;;15.60;51.12
25610;BME280;13479;49.044;8.716;2023-04-25T14:45:44;98718.34;;;15.66;49.86
25610;BME280;13479;49.044;8.716;2023-04-25T14:48:10;98742.25;;;15.68;49.97
25610;BME280;13479;49.044;8.716;2023-04-25T14:50:35;98740.03;;;15.80;49.64
25610;BME280;13479;49.044;8.716;2023-04-25T14:53:00;98741.13;;;15.54;50.36
25610;BME280;13479;49.044;8.716;2023-04-25T14:55:27;98752.34;;;15.49;49.63
25610;BME280;13479;49.044;8.716;2023-04-25T14:57:54;98727.41;;;15.49;51.13
25610;BME280;13479;49.044;8.716;2023-04-25T15:00:20;98700.31;;;15.52;49.95
25610;BME280;13479;49.044;8.716;2023-04-25T15:02:47;98742.66;;;15.40;49.81
25610;BME280;13479;49.044;8.716;2023-04-25T15:05:13;98711.78;;;15.21;51.22
25610;BME280;13479;49.044;8.716;2023-04-25T15:07:38;98645.66;;;14.73;52.42
25610;BME280;13479;49.044;8.716;2023-04-25T15:10:06;98580.56;;;14.58;53.55
25610;BME280;13479;49.044;8.716;2023-04-25T15:12:36;98554.84;;;14.48;54.15
25610;BME280;13479;49.044;8.716;2023-04-25T15:15:01;98542.84;;;14.44;54.99
25610;BME280;13479;49.044;8.716;2023-04-25T15:17:27;98538.19;;;14.21;56.36
25610;BME280;13479;49.044;8.716;2023-04-25T15:19:55;98538.84;;;13.90;56.74
25610;BME280;13479;49.044;8.716;2023-04-25T15:22:21;98536.34;;;13.81;57.64
25610;BME280;13479;49.044;8.716;2023-04-25T15:24:46;98540.69;;;13.82;57.66
25610;BME280;13479;49.044;8.716;2023-04-25T15:27:12;98530.16;;;13.80;58.69
25610;BME280;13479;49.044;8.716;2023-04-25T15:29:37;98540.84;;;13.97;59.15
25610;BME280;13479;49.044;8.716;2023-04-25T15:32:03;98552.53;;;14.04;58.52
25610;BME280;13479;49.044;8.716;2023-04-25T15:34:28;98570.22;;;14.21;57.82
25610;BME280;13479;49.044;8.716;2023-04-25T15:36:53;98608.44;;;14.22;56.77
25610;BME280;13479;49.044;8.716;2023-04-25T15:39:19;98661.50;;;14.33;56.48
25610;BME280;13479;49.044;8.716;2023-04-25T15:41:44;98677.38;;;14.35;56.50
25610;BME280;13479;49.044;8.716;2023-04-25T15:44:10;98744.13;;;14.35;54.98
25610;BME280;13479;49.044;8.716;2023-04-25T15:46:35;98759.66;;;14.40;54.94
25610;BME280;13479;49.044;8.716;2023-04-25T15:49:00;98763.84;;;14.42;55.16
25610;BME280;13479;49.044;8.716;2023-04-25T15:51:26;98777.06;;;14.52;53.90
25610;BME280;13479;49.044;8.716;2023-04-25T15:53:52;98783.13;;;14.28;53.92
25610;BME280;13479;49.044;8.716;2023-04-25T15:56:17;98775.59;;;14.15;54.05
25610;BME280;13479;49.044;8.716;2023-04-25T15:58:42;98754.56;;;14.20;54.31
25610;BME280;13479;49.044;8.716;2023-04-25T16:01:08;98721.41;;;14.23;55.56
25610;BME280;13479;49.044;8.716;2023-04-25T16:03:33;98664.97;;;14.17;56.23
25610;BME280;13479;49.044;8.716;2023-04-25T16:05:58;98603.41;;;14.02;57.87
25610;BME280;13479;49.044;8.716;2023-04-25T16:08:23;98597.88;;;13.96;58.21
25610;BME280;13479;49.044;8.716;2023-04-25T16:10:50;98575.19;;;13.83;60.68
25610;BME280;13479;49.044;8.716;2023-04-25T16:13:15;98618.22;;;13.37;59.96
25610;BME280;13479;49.044;8.716;2023-04-25T16:15:40;98599.47;;;12.86;60.94
25610;BME280;13479;49.044;8.716;2023-04-25T16:18:06;98603.09;;;12.32;61.18
25610;BME280;13479;49.044;8.716;2023-04-25T16:20:32;98613.28;;;12.01;61.17
25610;BME280;13479;49.044;8.716;2023-04-25T16:22:57;98604.31;;;11.74;62.40
25610;BME280;13479;49.044;8.716;2023-04-25T16:25:24;98611.72;;;11.52;63.44
25610;BME280;13479;49.044;8.716;2023-04-25T16:27:49;98617.88;;;11.25;64.70
25610;BME280;13479;49.044;8.716;2023-04-25T16:30:14;98633.09;;;10.95;66.21
25610;BME280;13479;49.044;8.716;2023-04-25T16:32:40;98656.63;;;10.80;67.71
25610;BME280;13479;49.044;8.716;2023-04-25T16:35:07;98675.94;;;10.53;68.42
25610;BME280;13479;49.044;8.716;2023-04-25T16:37:32;98688.78;;;10.47;69.30
25610;BME280;13479;49.044;8.716;2023-04-25T16:39:58;98698.78;;;10.34;70.12
25610;BME280;13479;49.044;8.716;2023-04-25T16:42:23;98726.16;;;10.25;70.65
25610;BME280;13479;49.044;8.716;2023-04-25T16:44:49;98758.34;;;10.41;71.65
25610;BME280;13479;49.044;8.716;2023-04-25T16:47:14;98759.09;;;10.12;72.61
25610;BME280;13479;49.044;8.716;2023-04-25T16:49:40;98777.59;;;9.93;73.29
25610;BME280;13479;49.044;8.716;2023-04-25T16:52:05;98799.84;;;10.01;73.85
25610;BME280;13479;49.044;8.716;2023-04-25T16:54:30;98812.91;;;9.93;74.33
25610;BME280;13479;49.044;8.716;2023-04-25T16:56:56;98834.97;;;9.94;74.65
25610;BME280;13479;49.044;8.716;2023-04-25T16:59:22;98833.28;;;9.93;74.63
25610;BME280;13479;49.044;8.716;2023-04-25T17:01:47;98837.16;;;9.88;75.44
25610;BME280;13479;49.044;8.716;2023-04-25T17:04:13;98850.16;;;9.92;75.39
25610;BME280;13479;49.044;8.716;2023-04-25T17:06:38;98850.16;;;9.92;75.29
25610;BME280;13479;49.044;8.716;2023-04-25T17:09:03;98871.25;;;9.93;74.93